sensor_id;sensor_type;location;lat;lon;timestamp;P1;durP1;ratioP1;P2;durP2;ratioP2
21665;SDS011;10994;45.486;9.190;2022-09-09T00:00:40;9.20;;;8.02;;
21665;SDS011;10994;45.486;9.190;2022-09-09T00:06:23;8.75;;;6.97;;
21665;SDS011;10994;45.486;9.190;2022-09-09T00:09:08;10.38;;;7.30;;
21665;SDS011;10994;45.486;9.190;2022-09-09T00:11:52;9.35;;;6.75;;
21665;SDS011;10994;45.486;9.190;2022-09-09T00:20:14;10.68;;;7.40;;
21665;SDS011;10994;45.486;9.190;2022-09-09T00:23:05;7.90;;;7.10;;
21665;SDS011;10994;45.486;9.190;2022-09-09T00:29:00;8.00;;;7.20;;
21665;SDS011;10994;45.486;9.190;2022-09-09T00:31:39;9.38;;;7.82;;
21665;SDS011;10994;45.486;9.190;2022-09-09T00:34:09;10.25;;;7.43;;
21665;SDS011;10994;45.486;9.190;2022-09-09T00:36:42;8.30;;;7.40;;
21665;SDS011;10994;45.486;9.190;2022-09-09T00:39:44;9.95;;;8.13;;
21665;SDS011;10994;45.486;9.190;2022-09-09T00:42:13;9.27;;;7.30;;
21665;SDS011;10994;45.486;9.190;2022-09-09T00:44:39;8.07;;;7.30;;
21665;SDS011;10994;45.486;9.190;2022-09-09T00:47:36;12.55;;;7.88;;
21665;SDS011;10994;45.486;9.190;2022-09-09T00:50:25;9.48;;;8.10;;
21665;SDS011;10994;45.486;9.190;2022-09-09T00:58:23;11.50;;;7.95;;
21665;SDS011;10994;45.486;9.190;2022-09-09T01:00:50;10.15;;;9.10;;
21665;SDS011;10994;45.486;9.190;2022-09-09T01:03:34;10.73;;;9.27;;
21665;SDS011;10994;45.486;9.190;2022-09-09T01:17:05;9.52;;;8.07;;
21665;SDS011;10994;45.486;9.190;2022-09-09T01:19:40;10.15;;;8.40;;
21665;SDS011;10994;45.486;9.190;2022-09-09T01:22:33;10.20;;;7.97;;
21665;SDS011;10994;45.486;9.190;2022-09-09T01:28:01;10.35;;;8.85;;
21665;SDS011;10994;45.486;9.190;2022-09-09T01:30:32;10.73;;;8.77;;
21665;SDS011;10994;45.486;9.190;2022-09-09T01:33:03;10.00;;;8.40;;
21665;SDS011;10994;45.486;9.190;2022-09-09T01:35:46;11.38;;;9.85;;
21665;SDS011;10994;45.486;9.190;2022-09-09T01:38:23;10.63;;;9.38;;
21665;SDS011;10994;45.486;9.190;2022-09-09T01:40:51;11.20;;;8.30;;
21665;SDS011;10994;45.486;9.190;2022-09-09T01:43:20;14.05;;;8.40;;
21665;SDS011;10994;45.486;9.190;2022-09-09T01:45:47;13.80;;;10.13;;
21665;SDS011;10994;45.486;9.190;2022-09-09T01:48:16;11.02;;;9.65;;
21665;SDS011;10994;45.486;9.190;2022-09-09T01:50:51;10.82;;;9.73;;
21665;SDS011;10994;45.486;9.190;2022-09-09T01:53:18;10.95;;;8.60;;
21665;SDS011;10994;45.486;9.190;2022-09-09T02:02:55;9.30;;;8.25;;
21665;SDS011;10994;45.486;9.190;2022-09-09T02:07:49;10.73;;;8.85;;
21665;SDS011;10994;45.486;9.190;2022-09-09T02:10:37;10.18;;;8.40;;
21665;SDS011;10994;45.486;9.190;2022-09-09T02:13:24;11.70;;;8.65;;
21665;SDS011;10994;45.486;9.190;2022-09-09T02:18:48;10.00;;;9.00;;
21665;SDS011;10994;45.486;9.190;2022-09-09T02:21:18;12.07;;;9.35;;
21665;SDS011;10994;45.486;9.190;2022-09-09T02:23:46;10.82;;;9.23;;
21665;SDS011;10994;45.486;9.190;2022-09-09T02:26:17;11.13;;;9.20;;
21665;SDS011;10994;45.486;9.190;2022-09-09T02:28:52;12.25;;;9.07;;
21665;SDS011;10994;45.486;9.190;2022-09-09T02:31:22;10.88;;;9.40;;
21665;SDS011;10994;45.486;9.190;2022-09-09T02:33:53;10.50;;;8.57;;
21665;SDS011;10994;45.486;9.190;2022-09-09T02:36:23;13.40;;;10.27;;
21665;SDS011;10994;45.486;9.190;2022-09-09T02:38:51;12.15;;;9.70;;
21665;SDS011;10994;45.486;9.190;2022-09-09T02:41:24;11.75;;;10.32;;
21665;SDS011;10994;45.486;9.190;2022-09-09T02:43:56;12.90;;;10.20;;
21665;SDS011;10994;45.486;9.190;2022-09-09T02:49:11;13.02;;;10.85;;
21665;SDS011;10994;45.486;9.190;2022-09-09T02:52:00;14.25;;;11.35;;
21665;SDS011;10994;45.486;9.190;2022-09-09T02:54:33;10.93;;;9.82;;
21665;SDS011;10994;45.486;9.190;2022-09-09T02:57:25;12.02;;;9.65;;
21665;SDS011;10994;45.486;9.190;2022-09-09T02:59:58;12.32;;;11.05;;
21665;SDS011;10994;45.486;9.190;2022-09-09T03:02:25;13.75;;;11.20;;
21665;SDS011;10994;45.486;9.190;2022-09-09T03:04:56;15.80;;;12.05;;
21665;SDS011;10994;45.486;9.190;2022-09-09T03:07:23;14.07;;;11.88;;
21665;SDS011;10994;45.486;9.190;2022-09-09T03:09:50;15.13;;;13.52;;
21665;SDS011;10994;45.486;9.190;2022-09-09T03:12:17;16.00;;;14.27;;
21665;SDS011;10994;45.486;9.190;2022-09-09T03:14:43;18.67;;;14.35;;
21665;SDS011;10994;45.486;9.190;2022-09-09T03:17:11;16.40;;;13.60;;
21665;SDS011;10994;45.486;9.190;2022-09-09T03:19:44;16.20;;;13.70;;
21665;SDS011;10994;45.486;9.190;2022-09-09T03:22:10;18.40;;;14.20;;
21665;SDS011;10994;45.486;9.190;2022-09-09T03:24:39;18.33;;;14.60;;
21665;SDS011;10994;45.486;9.190;2022-09-09T03:27:05;17.83;;;14.68;;
21665;SDS011;10994;45.486;9.190;2022-09-09T03:29:31;14.98;;;13.00;;
21665;SDS011;10994;45.486;9.190;2022-09-09T03:32:00;13.80;;;12.07;;
21665;SDS011;10994;45.486;9.190;2022-09-09T03:34:26;13.65;;;12.13;;
21665;SDS011;10994;45.486;9.190;2022-09-09T03:36:52;19.15;;;13.10;;
21665;SDS011;10994;45.486;9.190;2022-09-09T03:39:18;14.85;;;13.25;;
21665;SDS011;10994;45.486;9.190;2022-09-09T03:41:43;16.70;;;13.05;;
21665;SDS011;10994;45.486;9.190;2022-09-09T03:44:11;18.92;;;12.52;;
21665;SDS011;10994;45.486;9.190;2022-09-09T03:46:39;16.35;;;11.10;;
21665;SDS011;10994;45.486;9.190;2022-09-09T03:49:05;14.32;;;12.80;;
21665;SDS011;10994;45.486;9.190;2022-09-09T03:51:31;15.65;;;12.85;;
21665;SDS011;10994;45.486;9.190;2022-09-09T03:53:59;15.20;;;13.35;;
21665;SDS011;10994;45.486;9.190;2022-09-09T03:56:27;15.13;;;12.80;;
21665;SDS011;10994;45.486;9.190;2022-09-09T03:58:52;14.50;;;12.95;;
21665;SDS011;10994;45.486;9.190;2022-09-09T04:01:18;16.05;;;13.00;;
21665;SDS011;10994;45.486;9.190;2022-09-09T04:03:44;14.63;;;12.65;;
21665;SDS011;10994;45.486;9.190;2022-09-09T04:06:11;15.75;;;14.05;;
21665;SDS011;10994;45.486;9.190;2022-09-09T04:08:40;17.70;;;13.35;;
21665;SDS011;10994;45.486;9.190;2022-09-09T04:11:07;18.60;;;13.88;;
21665;SDS011;10994;45.486;9.190;2022-09-09T04:13:35;16.73;;;13.55;;
21665;SDS011;10994;45.486;9.190;2022-09-09T04:16:07;15.77;;;14.10;;
21665;SDS011;10994;45.486;9.190;2022-09-09T04:18:35;19.13;;;14.23;;
21665;SDS011;10994;45.486;9.190;2022-09-09T04:21:02;16.20;;;14.15;;
21665;SDS011;10994;45.486;9.190;2022-09-09T04:23:30;18.23;;;14.00;;
21665;SDS011;10994;45.486;9.190;2022-09-09T04:25:58;15.00;;;12.15;;
21665;SDS011;10994;45.486;9.190;2022-09-09T04:28:25;17.52;;;13.50;;
21665;SDS011;10994;45.486;9.190;2022-09-09T04:30:53;16.60;;;13.32;;
21665;SDS011;10994;45.486;9.190;2022-09-09T04:33:20;15.55;;;12.48;;
21665;SDS011;10994;45.486;9.190;2022-09-09T04:35:49;13.32;;;11.98;;
21665;SDS011;10994;45.486;9.190;2022-09-09T04:38:16;15.00;;;12.35;;
21665;SDS011;10994;45.486;9.190;2022-09-09T04:40:46;16.33;;;11.60;;
21665;SDS011;10994;45.486;9.190;2022-09-09T04:43:13;13.50;;;11.75;;
21665;SDS011;10994;45.486;9.190;2022-09-09T04:45:44;14.02;;;11.40;;
21665;SDS011;10994;45.486;9.190;2022-09-09T04:48:13;13.10;;;11.60;;
21665;SDS011;10994;45.486;9.190;2022-09-09T04:50:39;15.77;;;11.45;;
21665;SDS011;10994;45.486;9.190;2022-09-09T04:53:06;14.27;;;10.80;;
21665;SDS011;10994;45.486;9.190;2022-09-09T04:55:33;15.10;;;12.07;;
21665;SDS011;10994;45.486;9.190;2022-09-09T04:58:06;16.35;;;12.02;;
21665;SDS011;10994;45.486;9.190;2022-09-09T05:00:34;16.10;;;12.73;;
21665;SDS011;10994;45.486;9.190;2022-09-09T05:03:03;16.75;;;12.38;;
21665;SDS011;10994;45.486;9.190;2022-09-09T05:05:37;15.63;;;13.40;;
21665;SDS011;10994;45.486;9.190;2022-09-09T05:08:05;14.40;;;12.52;;
21665;SDS011;10994;45.486;9.190;2022-09-09T05:10:32;15.77;;;13.05;;
21665;SDS011;10994;45.486;9.190;2022-09-09T05:12:59;14.35;;;12.60;;
21665;SDS011;10994;45.486;9.190;2022-09-09T05:15:27;13.75;;;12.38;;
21665;SDS011;10994;45.486;9.190;2022-09-09T05:17:56;20.08;;;12.93;;
21665;SDS011;10994;45.486;9.190;2022-09-09T05:20:27;17.00;;;12.50;;
21665;SDS011;10994;45.486;9.190;2022-09-09T05:22:54;17.00;;;12.13;;
21665;SDS011;10994;45.486;9.190;2022-09-09T05:25:22;17.58;;;12.23;;
21665;SDS011;10994;45.486;9.190;2022-09-09T05:27:51;14.82;;;12.95;;
21665;SDS011;10994;45.486;9.190;2022-09-09T05:30:18;15.05;;;11.98;;
21665;SDS011;10994;45.486;9.190;2022-09-09T05:32:44;14.43;;;11.40;;
21665;SDS011;10994;45.486;9.190;2022-09-09T05:35:12;15.27;;;12.73;;
21665;SDS011;10994;45.486;9.190;2022-09-09T05:37:38;14.23;;;12.27;;
21665;SDS011;10994;45.486;9.190;2022-09-09T05:40:05;19.23;;;12.23;;
21665;SDS011;10994;45.486;9.190;2022-09-09T05:42:31;17.73;;;13.23;;
21665;SDS011;10994;45.486;9.190;2022-09-09T05:44:58;14.98;;;11.85;;
21665;SDS011;10994;45.486;9.190;2022-09-09T05:47:24;15.40;;;11.80;;
21665;SDS011;10994;45.486;9.190;2022-09-09T05:49:53;12.70;;;10.55;;
21665;SDS011;10994;45.486;9.190;2022-09-09T05:52:20;19.83;;;13.48;;
21665;SDS011;10994;45.486;9.190;2022-09-09T05:54:46;12.90;;;11.48;;
21665;SDS011;10994;45.486;9.190;2022-09-09T05:57:12;15.82;;;11.55;;
21665;SDS011;10994;45.486;9.190;2022-09-09T05:59:38;18.38;;;13.02;;
21665;SDS011;10994;45.486;9.190;2022-09-09T06:02:03;14.05;;;11.80;;
21665;SDS011;10994;45.486;9.190;2022-09-09T06:04:33;13.55;;;12.07;;
21665;SDS011;10994;45.486;9.190;2022-09-09T06:07:00;14.75;;;10.18;;
21665;SDS011;10994;45.486;9.190;2022-09-09T06:09:27;8.68;;;7.78;;
21665;SDS011;10994;45.486;9.190;2022-09-09T06:11:54;8.88;;;6.72;;
21665;SDS011;10994;45.486;9.190;2022-09-09T06:14:21;7.07;;;6.30;;
21665;SDS011;10994;45.486;9.190;2022-09-09T06:16:49;9.43;;;6.93;;
21665;SDS011;10994;45.486;9.190;2022-09-09T06:19:20;7.25;;;6.55;;
21665;SDS011;10994;45.486;9.190;2022-09-09T06:21:46;8.15;;;6.28;;
21665;SDS011;10994;45.486;9.190;2022-09-09T06:24:13;29.75;;;13.73;;
21665;SDS011;10994;45.486;9.190;2022-09-09T06:26:42;6.75;;;5.20;;
21665;SDS011;10994;45.486;9.190;2022-09-09T06:29:15;5.93;;;4.75;;
21665;SDS011;10994;45.486;9.190;2022-09-09T06:31:41;5.88;;;4.43;;
21665;SDS011;10994;45.486;9.190;2022-09-09T06:34:34;4.57;;;3.75;;
21665;SDS011;10994;45.486;9.190;2022-09-09T06:37:01;4.32;;;3.78;;
21665;SDS011;10994;45.486;9.190;2022-09-09T06:39:34;5.82;;;4.05;;
21665;SDS011;10994;45.486;9.190;2022-09-09T06:42:00;6.22;;;5.13;;
21665;SDS011;10994;45.486;9.190;2022-09-09T06:44:45;8.55;;;4.90;;
21665;SDS011;10994;45.486;9.190;2022-09-09T06:47:17;8.27;;;5.22;;
21665;SDS011;10994;45.486;9.190;2022-09-09T06:49:44;10.25;;;5.28;;
21665;SDS011;10994;45.486;9.190;2022-09-09T06:52:10;6.20;;;3.83;;
21665;SDS011;10994;45.486;9.190;2022-09-09T06:54:37;4.53;;;3.70;;
21665;SDS011;10994;45.486;9.190;2022-09-09T06:57:04;6.43;;;3.53;;
21665;SDS011;10994;45.486;9.190;2022-09-09T06:59:32;6.05;;;3.30;;
21665;SDS011;10994;45.486;9.190;2022-09-09T07:01:58;11.65;;;3.58;;
21665;SDS011;10994;45.486;9.190;2022-09-09T07:04:25;5.45;;;3.30;;
21665;SDS011;10994;45.486;9.190;2022-09-09T07:06:51;3.17;;;2.88;;
21665;SDS011;10994;45.486;9.190;2022-09-09T07:09:21;4.25;;;3.00;;
21665;SDS011;10994;45.486;9.190;2022-09-09T07:11:50;4.40;;;2.97;;
21665;SDS011;10994;45.486;9.190;2022-09-09T07:14:21;5.25;;;3.40;;
21665;SDS011;10994;45.486;9.190;2022-09-09T07:16:52;5.97;;;3.75;;
21665;SDS011;10994;45.486;9.190;2022-09-09T07:19:18;4.47;;;3.58;;
21665;SDS011;10994;45.486;9.190;2022-09-09T07:21:47;5.22;;;3.30;;
21665;SDS011;10994;45.486;9.190;2022-09-09T07:24:16;7.07;;;5.00;;
21665;SDS011;10994;45.486;9.190;2022-09-09T07:26:42;7.57;;;4.40;;
21665;SDS011;10994;45.486;9.190;2022-09-09T07:29:10;5.38;;;3.83;;
21665;SDS011;10994;45.486;9.190;2022-09-09T07:31:39;5.47;;;3.90;;
21665;SDS011;10994;45.486;9.190;2022-09-09T07:34:09;5.75;;;4.63;;
21665;SDS011;10994;45.486;9.190;2022-09-09T07:36:39;5.63;;;3.97;;
21665;SDS011;10994;45.486;9.190;2022-09-09T07:39:08;8.48;;;4.88;;
21665;SDS011;10994;45.486;9.190;2022-09-09T07:41:40;7.30;;;4.03;;
21665;SDS011;10994;45.486;9.190;2022-09-09T07:44:11;4.25;;;3.40;;
21665;SDS011;10994;45.486;9.190;2022-09-09T07:46:48;3.72;;;3.00;;
21665;SDS011;10994;45.486;9.190;2022-09-09T07:49:18;5.80;;;3.28;;
21665;SDS011;10994;45.486;9.190;2022-09-09T07:51:45;3.58;;;2.60;;
21665;SDS011;10994;45.486;9.190;2022-09-09T07:54:14;3.67;;;2.05;;
21665;SDS011;10994;45.486;9.190;2022-09-09T07:56:43;6.75;;;2.45;;
21665;SDS011;10994;45.486;9.190;2022-09-09T07:59:10;3.80;;;2.20;;
21665;SDS011;10994;45.486;9.190;2022-09-09T08:01:40;4.07;;;2.45;;
21665;SDS011;10994;45.486;9.190;2022-09-09T08:04:14;5.03;;;2.35;;
21665;SDS011;10994;45.486;9.190;2022-09-09T08:06:47;5.07;;;2.15;;
21665;SDS011;10994;45.486;9.190;2022-09-09T08:09:17;4.10;;;2.40;;
21665;SDS011;10994;45.486;9.190;2022-09-09T08:11:45;3.35;;;1.52;;
21665;SDS011;10994;45.486;9.190;2022-09-09T08:14:12;7.05;;;1.85;;
21665;SDS011;10994;45.486;9.190;2022-09-09T08:16:40;5.97;;;2.47;;
21665;SDS011;10994;45.486;9.190;2022-09-09T08:19:10;2.05;;;1.67;;
21665;SDS011;10994;45.486;9.190;2022-09-09T08:21:36;8.13;;;2.15;;
21665;SDS011;10994;45.486;9.190;2022-09-09T08:24:04;3.17;;;1.65;;
21665;SDS011;10994;45.486;9.190;2022-09-09T08:26:35;2.47;;;2.17;;
21665;SDS011;10994;45.486;9.190;2022-09-09T08:29:13;1.50;;;1.40;;
21665;SDS011;10994;45.486;9.190;2022-09-09T08:31:41;3.08;;;1.48;;
21665;SDS011;10994;45.486;9.190;2022-09-09T08:34:09;2.65;;;1.75;;
21665;SDS011;10994;45.486;9.190;2022-09-09T08:36:37;2.15;;;1.48;;
21665;SDS011;10994;45.486;9.190;2022-09-09T08:39:06;5.97;;;1.40;;
21665;SDS011;10994;45.486;9.190;2022-09-09T08:50:28;2.20;;;1.73;;
21665;SDS011;10994;45.486;9.190;2022-09-09T08:53:11;2.20;;;1.27;;
21665;SDS011;10994;45.486;9.190;2022-09-09T08:55:50;6.65;;;1.65;;
21665;SDS011;10994;45.486;9.190;2022-09-09T08:58:25;2.50;;;1.60;;
21665;SDS011;10994;45.486;9.190;2022-09-09T09:03:50;3.38;;;1.42;;
21665;SDS011;10994;45.486;9.190;2022-09-09T09:11:39;2.67;;;0.73;;
21665;SDS011;10994;45.486;9.190;2022-09-09T09:14:11;2.17;;;1.00;;
21665;SDS011;10994;45.486;9.190;2022-09-09T09:16:51;1.42;;;0.90;;
21665;SDS011;10994;45.486;9.190;2022-09-09T09:19:21;1.25;;;1.00;;
21665;SDS011;10994;45.486;9.190;2022-09-09T09:21:54;1.67;;;1.20;;
21665;SDS011;10994;45.486;9.190;2022-09-09T09:26:58;2.90;;;1.75;;
21665;SDS011;10994;45.486;9.190;2022-09-09T09:29:32;2.53;;;1.08;;
21665;SDS011;10994;45.486;9.190;2022-09-09T09:32:00;1.42;;;1.00;;
21665;SDS011;10994;45.486;9.190;2022-09-09T09:34:29;5.10;;;0.85;;
21665;SDS011;10994;45.486;9.190;2022-09-09T09:36:56;2.55;;;1.10;;
21665;SDS011;10994;45.486;9.190;2022-09-09T09:39:30;3.88;;;0.75;;
21665;SDS011;10994;45.486;9.190;2022-09-09T09:42:34;1.63;;;0.85;;
21665;SDS011;10994;45.486;9.190;2022-09-09T09:44:55;1.88;;;0.82;;
21665;SDS011;10994;45.486;9.190;2022-09-09T09:47:32;1.85;;;1.20;;
21665;SDS011;10994;45.486;9.190;2022-09-09T09:50:17;11.35;;;7.85;;
21665;SDS011;10994;45.486;9.190;2022-09-09T09:52:53;2.95;;;0.82;;
21665;SDS011;10994;45.486;9.190;2022-09-09T09:55:23;1.20;;;0.80;;
21665;SDS011;10994;45.486;9.190;2022-09-09T09:57:51;3.88;;;0.60;;
21665;SDS011;10994;45.486;9.190;2022-09-09T10:00:19;3.17;;;0.75;;
21665;SDS011;10994;45.486;9.190;2022-09-09T10:02:55;2.90;;;1.13;;
21665;SDS011;10994;45.486;9.190;2022-09-09T10:05:25;3.28;;;0.88;;
21665;SDS011;10994;45.486;9.190;2022-09-09T10:08:02;1.77;;;1.13;;
21665;SDS011;10994;45.486;9.190;2022-09-09T10:13:07;2.35;;;1.10;;
21665;SDS011;10994;45.486;9.190;2022-09-09T10:18:57;2.60;;;1.10;;
21665;SDS011;10994;45.486;9.190;2022-09-09T10:29:36;1.65;;;1.30;;
21665;SDS011;10994;45.486;9.190;2022-09-09T10:34:54;2.22;;;1.10;;
21665;SDS011;10994;45.486;9.190;2022-09-09T10:40:02;3.58;;;1.77;;
21665;SDS011;10994;45.486;9.190;2022-09-09T10:42:52;3.20;;;1.10;;
21665;SDS011;10994;45.486;9.190;2022-09-09T10:45:32;2.80;;;1.58;;
21665;SDS011;10994;45.486;9.190;2022-09-09T10:56:26;3.78;;;1.40;;
21665;SDS011;10994;45.486;9.190;2022-09-09T11:01:25;2.08;;;1.40;;
21665;SDS011;10994;45.486;9.190;2022-09-09T11:03:54;2.10;;;1.50;;
21665;SDS011;10994;45.486;9.190;2022-09-09T11:06:29;1.65;;;1.25;;
21665;SDS011;10994;45.486;9.190;2022-09-09T11:09:02;5.35;;;1.88;;
21665;SDS011;10994;45.486;9.190;2022-09-09T11:11:33;2.20;;;1.25;;
21665;SDS011;10994;45.486;9.190;2022-09-09T11:19:11;1.35;;;1.13;;
21665;SDS011;10994;45.486;9.190;2022-09-09T11:21:41;3.25;;;1.08;;
21665;SDS011;10994;45.486;9.190;2022-09-09T11:24:20;1.80;;;0.98;;
21665;SDS011;10994;45.486;9.190;2022-09-09T11:26:55;6.18;;;2.00;;
21665;SDS011;10994;45.486;9.190;2022-09-09T11:32:12;3.50;;;2.00;;
21665;SDS011;10994;45.486;9.190;2022-09-09T11:40:43;0.90;;;0.90;;
21665;SDS011;10994;45.486;9.190;2022-09-09T11:45:38;1.23;;;1.02;;
21665;SDS011;10994;45.486;9.190;2022-09-09T11:48:21;2.13;;;1.23;;
21665;SDS011;10994;45.486;9.190;2022-09-09T11:50:59;2.15;;;1.02;;
21665;SDS011;10994;45.486;9.190;2022-09-09T11:53:33;1.33;;;1.10;;
21665;SDS011;10994;45.486;9.190;2022-09-09T11:56:05;2.15;;;1.40;;
21665;SDS011;10994;45.486;9.190;2022-09-09T11:58:43;3.67;;;1.38;;
21665;SDS011;10994;45.486;9.190;2022-09-09T12:01:27;1.85;;;1.10;;
21665;SDS011;10994;45.486;9.190;2022-09-09T12:04:12;4.75;;;1.10;;
21665;SDS011;10994;45.486;9.190;2022-09-09T12:06:55;2.28;;;1.35;;
21665;SDS011;10994;45.486;9.190;2022-09-09T12:09:29;3.08;;;1.50;;
21665;SDS011;10994;45.486;9.190;2022-09-09T12:17:21;1.30;;;0.93;;
21665;SDS011;10994;45.486;9.190;2022-09-09T12:29:12;3.22;;;1.30;;
21665;SDS011;10994;45.486;9.190;2022-09-09T12:31:54;3.97;;;1.20;;
21665;SDS011;10994;45.486;9.190;2022-09-09T12:34:40;2.05;;;1.27;;
21665;SDS011;10994;45.486;9.190;2022-09-09T12:39:57;3.50;;;1.67;;
21665;SDS011;10994;45.486;9.190;2022-09-09T12:42:24;4.22;;;1.30;;
21665;SDS011;10994;45.486;9.190;2022-09-09T12:44:58;2.58;;;1.30;;
21665;SDS011;10994;45.486;9.190;2022-09-09T12:47:37;3.08;;;1.40;;
21665;SDS011;10994;45.486;9.190;2022-09-09T12:52:57;2.78;;;1.33;;
21665;SDS011;10994;45.486;9.190;2022-09-09T12:55:35;3.35;;;1.35;;
21665;SDS011;10994;45.486;9.190;2022-09-09T12:58:03;3.90;;;1.80;;
21665;SDS011;10994;45.486;9.190;2022-09-09T13:00:32;2.25;;;1.20;;
21665;SDS011;10994;45.486;9.190;2022-09-09T13:02:59;1.30;;;1.10;;
21665;SDS011;10994;45.486;9.190;2022-09-09T13:05:37;3.60;;;1.40;;
21665;SDS011;10994;45.486;9.190;2022-09-09T13:08:08;2.60;;;1.45;;
21665;SDS011;10994;45.486;9.190;2022-09-09T13:10:38;4.13;;;1.50;;
21665;SDS011;10994;45.486;9.190;2022-09-09T13:13:27;2.45;;;1.48;;
21665;SDS011;10994;45.486;9.190;2022-09-09T13:15:56;4.15;;;1.77;;
21665;SDS011;10994;45.486;9.190;2022-09-09T13:18:31;2.00;;;1.38;;
21665;SDS011;10994;45.486;9.190;2022-09-09T13:20:59;3.22;;;2.00;;
21665;SDS011;10994;45.486;9.190;2022-09-09T13:23:29;4.13;;;1.45;;
21665;SDS011;10994;45.486;9.190;2022-09-09T13:25:58;2.70;;;1.30;;
21665;SDS011;10994;45.486;9.190;2022-09-09T13:28:26;1.40;;;1.30;;
21665;SDS011;10994;45.486;9.190;2022-09-09T13:33:29;2.42;;;1.38;;
21665;SDS011;10994;45.486;9.190;2022-09-09T13:36:06;2.97;;;1.30;;
21665;SDS011;10994;45.486;9.190;2022-09-09T13:39:16;3.13;;;1.70;;
21665;SDS011;10994;45.486;9.190;2022-09-09T13:41:29;1.65;;;1.23;;
21665;SDS011;10994;45.486;9.190;2022-09-09T13:43:55;2.70;;;1.90;;
21665;SDS011;10994;45.486;9.190;2022-09-09T13:48:57;2.30;;;1.48;;
21665;SDS011;10994;45.486;9.190;2022-09-09T13:51:29;1.95;;;1.30;;
21665;SDS011;10994;45.486;9.190;2022-09-09T13:54:00;4.65;;;1.50;;
21665;SDS011;10994;45.486;9.190;2022-09-09T13:56:26;1.88;;;1.60;;
21665;SDS011;10994;45.486;9.190;2022-09-09T13:58:52;4.72;;;2.78;;
21665;SDS011;10994;45.486;9.190;2022-09-09T14:01:17;2.90;;;1.77;;
21665;SDS011;10994;45.486;9.190;2022-09-09T14:03:43;3.35;;;2.00;;
21665;SDS011;10994;45.486;9.190;2022-09-09T14:06:09;3.90;;;1.80;;
21665;SDS011;10994;45.486;9.190;2022-09-09T14:08:36;2.17;;;1.33;;
21665;SDS011;10994;45.486;9.190;2022-09-09T14:11:04;1.92;;;1.70;;
21665;SDS011;10994;45.486;9.190;2022-09-09T14:13:29;3.47;;;1.50;;
21665;SDS011;10994;45.486;9.190;2022-09-09T14:15:55;3.47;;;1.60;;
21665;SDS011;10994;45.486;9.190;2022-09-09T14:18:21;2.13;;;1.20;;
21665;SDS011;10994;45.486;9.190;2022-09-09T14:20:48;3.25;;;1.63;;
21665;SDS011;10994;45.486;9.190;2022-09-09T14:23:15;3.70;;;1.75;;
21665;SDS011;10994;45.486;9.190;2022-09-09T14:25:41;8.40;;;1.67;;
21665;SDS011;10994;45.486;9.190;2022-09-09T14:28:11;2.63;;;1.30;;
21665;SDS011;10994;45.486;9.190;2022-09-09T14:30:39;1.27;;;1.17;;
21665;SDS011;10994;45.486;9.190;2022-09-09T14:33:06;2.08;;;1.30;;
21665;SDS011;10994;45.486;9.190;2022-09-09T14:35:33;4.90;;;1.30;;
21665;SDS011;10994;45.486;9.190;2022-09-09T14:37:59;2.70;;;1.15;;
21665;SDS011;10994;45.486;9.190;2022-09-09T14:40:26;2.00;;;1.30;;
21665;SDS011;10994;45.486;9.190;2022-09-09T14:42:52;2.78;;;1.10;;
21665;SDS011;10994;45.486;9.190;2022-09-09T14:45:18;2.70;;;1.60;;
21665;SDS011;10994;45.486;9.190;2022-09-09T14:47:44;5.82;;;1.83;;
21665;SDS011;10994;45.486;9.190;2022-09-09T14:50:10;1.50;;;1.10;;
21665;SDS011;10994;45.486;9.190;2022-09-09T14:52:37;3.42;;;1.50;;
21665;SDS011;10994;45.486;9.190;2022-09-09T14:55:03;3.08;;;1.48;;
21665;SDS011;10994;45.486;9.190;2022-09-09T14:57:30;2.47;;;1.20;;
21665;SDS011;10994;45.486;9.190;2022-09-09T14:59:56;2.88;;;1.20;;
21665;SDS011;10994;45.486;9.190;2022-09-09T15:02:22;1.38;;;1.20;;
21665;SDS011;10994;45.486;9.190;2022-09-09T15:04:47;2.65;;;1.50;;
21665;SDS011;10994;45.486;9.190;2022-09-09T15:07:15;1.30;;;1.20;;
21665;SDS011;10994;45.486;9.190;2022-09-09T15:09:41;1.40;;;1.25;;
21665;SDS011;10994;45.486;9.190;2022-09-09T15:12:07;1.67;;;1.20;;
21665;SDS011;10994;45.486;9.190;2022-09-09T15:14:33;2.15;;;1.70;;
21665;SDS011;10994;45.486;9.190;2022-09-09T15:17:00;3.85;;;1.23;;
21665;SDS011;10994;45.486;9.190;2022-09-09T15:19:26;2.50;;;1.23;;
21665;SDS011;10994;45.486;9.190;2022-09-09T15:21:52;2.25;;;1.40;;
21665;SDS011;10994;45.486;9.190;2022-09-09T15:24:17;1.85;;;1.40;;
21665;SDS011;10994;45.486;9.190;2022-09-09T15:26:43;2.67;;;1.48;;
21665;SDS011;10994;45.486;9.190;2022-09-09T15:29:08;2.35;;;1.42;;
21665;SDS011;10994;45.486;9.190;2022-09-09T15:31:34;1.70;;;1.15;;
21665;SDS011;10994;45.486;9.190;2022-09-09T15:34:01;1.77;;;1.42;;
21665;SDS011;10994;45.486;9.190;2022-09-09T15:36:29;1.60;;;1.10;;
21665;SDS011;10994;45.486;9.190;2022-09-09T15:39:00;3.28;;;1.40;;
21665;SDS011;10994;45.486;9.190;2022-09-09T15:41:27;2.70;;;1.40;;
21665;SDS011;10994;45.486;9.190;2022-09-09T15:43:54;2.50;;;1.20;;
21665;SDS011;10994;45.486;9.190;2022-09-09T15:46:25;1.98;;;1.10;;
21665;SDS011;10994;45.486;9.190;2022-09-09T15:51:31;2.03;;;1.40;;
21665;SDS011;10994;45.486;9.190;2022-09-09T15:53:58;3.40;;;1.98;;
21665;SDS011;10994;45.486;9.190;2022-09-09T15:56:24;3.78;;;1.40;;
21665;SDS011;10994;45.486;9.190;2022-09-09T15:58:52;2.13;;;1.38;;
21665;SDS011;10994;45.486;9.190;2022-09-09T16:01:18;3.28;;;1.30;;
21665;SDS011;10994;45.486;9.190;2022-09-09T16:03:45;7.78;;;1.45;;
21665;SDS011;10994;45.486;9.190;2022-09-09T16:06:15;2.10;;;1.70;;
21665;SDS011;10994;45.486;9.190;2022-09-09T16:08:43;2.40;;;1.27;;
21665;SDS011;10994;45.486;9.190;2022-09-09T16:11:15;3.22;;;1.40;;
21665;SDS011;10994;45.486;9.190;2022-09-09T16:13:45;7.03;;;1.38;;
21665;SDS011;10994;45.486;9.190;2022-09-09T16:16:13;3.30;;;1.45;;
21665;SDS011;10994;45.486;9.190;2022-09-09T16:18:44;2.70;;;1.35;;
21665;SDS011;10994;45.486;9.190;2022-09-09T16:21:13;1.40;;;1.30;;
21665;SDS011;10994;45.486;9.190;2022-09-09T16:23:40;2.92;;;1.30;;
21665;SDS011;10994;45.486;9.190;2022-09-09T16:26:08;1.50;;;1.40;;
21665;SDS011;10994;45.486;9.190;2022-09-09T16:28:36;6.32;;;1.67;;
21665;SDS011;10994;45.486;9.190;2022-09-09T16:31:05;2.03;;;1.63;;
21665;SDS011;10994;45.486;9.190;2022-09-09T16:33:49;2.65;;;1.58;;
21665;SDS011;10994;45.486;9.190;2022-09-09T16:36:21;3.85;;;1.40;;
21665;SDS011;10994;45.486;9.190;2022-09-09T16:38:51;3.63;;;1.70;;
21665;SDS011;10994;45.486;9.190;2022-09-09T16:41:20;3.90;;;1.65;;
21665;SDS011;10994;45.486;9.190;2022-09-09T16:43:46;4.30;;;1.73;;
21665;SDS011;10994;45.486;9.190;2022-09-09T16:46:16;3.97;;;1.60;;
21665;SDS011;10994;45.486;9.190;2022-09-09T16:48:45;2.20;;;1.45;;
21665;SDS011;10994;45.486;9.190;2022-09-09T16:51:13;2.88;;;1.60;;
21665;SDS011;10994;45.486;9.190;2022-09-09T16:53:45;3.88;;;1.83;;
21665;SDS011;10994;45.486;9.190;2022-09-09T16:56:15;4.45;;;1.75;;
21665;SDS011;10994;45.486;9.190;2022-09-09T16:58:42;2.97;;;1.20;;
21665;SDS011;10994;45.486;9.190;2022-09-09T17:01:10;2.22;;;1.98;;
21665;SDS011;10994;45.486;9.190;2022-09-09T17:03:39;3.10;;;2.00;;
21665;SDS011;10994;45.486;9.190;2022-09-09T17:06:08;2.65;;;1.52;;
21665;SDS011;10994;45.486;9.190;2022-09-09T17:08:35;5.88;;;2.00;;
21665;SDS011;10994;45.486;9.190;2022-09-09T17:11:00;3.10;;;1.67;;
21665;SDS011;10994;45.486;9.190;2022-09-09T17:13:26;1.70;;;1.58;;
21665;SDS011;10994;45.486;9.190;2022-09-09T17:15:52;4.90;;;2.03;;
21665;SDS011;10994;45.486;9.190;2022-09-09T17:18:20;4.07;;;2.25;;
21665;SDS011;10994;45.486;9.190;2022-09-09T17:20:53;1.75;;;1.38;;